• Join FlightAware (Why Join?)
  • Login
  • US Flag 
09:00PM EDT


 

Airport Tracker/Info


-or-


 

Live Flight TrackerFlight Track Log ✈ JST561 ✈ 21-Apr-2013 ✈ YBBN / BNE - YMML / MEL

Flight Track Log - Related Links

Times and Time Zones

All times are in EDT time to prevent confusion due to time zone crossing. See the JST561 flight status page for this flight to view local times or setup timezone preferences in your user account.

Time Position Orientation Groundspeed Altitude Reporting Facility
EDT Latitude Longitude Course Direction KTS MPH feet Rate Location/Type
06:15PM -27.3880 153.1220 104° East 7 8  Level FlightAware
06:16PM -27.3880 153.1230 90° East 11 13  Level FlightAware
06:16PM -27.3870 153.1230 360° North 14 16  Level FlightAware
06:16PM -27.3850 153.1250 42° Northeast 21 24  Level FlightAware
06:17PM -27.3820 153.1260 16° North 27 31  Level FlightAware
06:17PM -27.3790 153.1280 31° Northeast 19 22  Level FlightAware
06:18PM -27.3760 153.1300 31° Northeast 26 30  Level FlightAware
06:18PM -27.3740 153.1310 24° Northeast 17 20 60 Level FlightAware
06:19PM -27.3740 153.1340 90° East 17 20 60 Level FlightAware
06:20PM -27.3750 153.1340 180° South 120 Level FlightAware
06:20PM -27.3760 153.1340 180° South 43 49 120 Level FlightAware
06:21PM -27.3900 153.1260 207° Southwest 151 174 200 1,020 Climbing FlightAware
06:21PM -27.3980 153.1210 209° Southwest 148 170 800 1,920 Climbing FlightAware
06:22PM -27.4140 153.1110 209° Southwest 170 196 1,500 1,680 Climbing FlightAware
06:22PM -27.4230 153.1090 191° South 179 206 1,800 1,800 Climbing FlightAware
06:22PM -27.4390 153.1150 162° South 201 231 2,400 2,400 Climbing FlightAware
06:22PM -27.4610 153.1270 154° Southeast 211 243 3,600 2,520 Climbing FlightAware
06:23PM -27.4937 153.1461 154° Southeast 235 270 4,700 1,800 Climbing Aus ATC (RADAR)
06:23PM -27.4900 153.1430 154° Southeast 251 289 4,500 1,080 Descending FlightAware
06:23PM -27.5000 153.1460 165° South 260 299 4,900 2,580 Climbing FlightAware
06:23PM -27.5250 153.1430 186° South 280 322 5,800 2,100 Climbing FlightAware
06:24PM -27.5590 153.1340 193° South 315 362 6,500 1,500 Climbing FlightAware
06:24PM -27.5820 153.1250 199° South 335 386 6,800 1,800 Climbing FlightAware
06:25PM -27.6180 153.1100 200° South 355 409 7,700 2,520 Climbing FlightAware
06:25PM -27.6400 153.1010 200° South 354 407 8,500 2,880 Climbing FlightAware
06:25PM -27.6860 153.0800 202° Southwest 358 412 9,900 3,000 Climbing FlightAware
06:26PM -27.7348 153.0426 202° Southwest 362 417 11,400 2,700 Climbing Aus ATC (RADAR)
06:26PM -27.7420 153.0360 202° Southwest 373 429 11,700 2,880 Climbing FlightAware
06:26PM -27.7851 153.0043 202° Southwest 371 427 13,100 3,060 Climbing Aus ATC (RADAR)
06:27PM -27.8080 152.9870 202° Southwest 371 427 14,000 2,460 Climbing FlightAware
06:27PM -27.8645 152.9446 202° Southwest 376 433 15,400 2,220 Climbing Aus ATC (RADAR)
06:27PM -27.8670 152.9430 202° Southwest 382 440 15,500 2,400 Climbing FlightAware
06:28PM -27.9160 152.9056 202° Southwest 380 437 16,800 2,400 Climbing Aus ATC (RADAR)
06:28PM -27.9310 152.8940 202° Southwest 388 447 17,300 2,280 Climbing FlightAware
06:29PM -27.9985 152.8431 202° Southwest 387 445 18,900 2,220 Climbing Aus ATC (RADAR)
06:29PM -27.9920 152.8480 202° Southwest 393 452 18,800 1,680 Descending FlightAware
06:29PM -28.0540 152.8000 214° Southwest 401 461 20,100 1,920 Climbing FlightAware
06:30PM -28.1240 152.7460 214° Southwest 402 463 21,600 2,160 Climbing FlightAware
06:31PM -28.1800 152.7030 214° Southwest 396 456 23,200 1,740 Climbing FlightAware
06:32PM -28.2540 152.6470 214° Southwest 406 467 24,100 1,380 Climbing FlightAware
06:32PM -28.3067 152.6069 214° Southwest 409 471 24,900 1,500 Climbing Aus ATC (RADAR)
06:32PM -28.3180 152.5980 214° Southwest 411 473 25,100 1,500 Climbing FlightAware
06:33PM -28.3621 152.5649 214° Southwest 411 473 25,800 1,320 Climbing Aus ATC (RADAR)
06:33PM -28.3800 152.5500 214° Southwest 413 475 26,000 1,500 Climbing FlightAware
06:33PM -28.4270 152.5140 214° Southwest 408 470 27,000 2,160 Climbing FlightAware
06:34PM -28.4643 152.4860 214° Southwest 408 470 27,700 1,320 Climbing Aus ATC (RADAR)
06:34PM -28.4890 152.4660 214° Southwest 409 471 27,900 1,380 Climbing FlightAware
06:35PM -28.5590 152.4120 214° Southwest 403 464 29,300 2,400 Climbing FlightAware
06:35PM -28.6036 152.3791 214° Southwest 396 456 30,600 2,400 Climbing Aus ATC (RADAR)
06:36PM -28.6190 152.3660 214° Southwest 385 443 30,900 1,680 Climbing FlightAware
06:36PM -28.6546 152.3390 214° Southwest 384 442 31,600 1,320 Climbing Aus ATC (RADAR)
06:36PM -28.6870 152.3130 214° Southwest 385 443 31,900 1,020 Climbing FlightAware
06:37PM -28.7450 152.2680 214° Southwest 385 443 32,800 1,260 Climbing FlightAware
06:37PM -28.7797 152.2419 214° Southwest 387 445 33,100 720 Climbing Aus ATC (RADAR)
06:38PM -28.8030 152.2220 214° Southwest 391 450 33,300 1,140 Climbing FlightAware
06:38PM -28.8710 152.1700 214° Southwest 388 447 34,400 1,380 Climbing FlightAware
06:39PM -28.9135 152.1376 214° Southwest 387 445 34,900 960 Climbing Aus ATC (RADAR)
06:39PM -28.9357 152.1201 215° Southwest 388 447 35,000 300 Climbing Aus ATC (RADAR)
06:39PM -28.9320 152.1220 215° Southwest 390 449 35,000 960 Level FlightAware
06:39PM -28.9806 152.0851 215° Southwest 392 451 35,500 900 Climbing Aus ATC (RADAR)
06:40PM -28.9910 152.0760 215° Southwest 391 450 35,600 600 Climbing FlightAware
06:40PM -29.0615 152.0218 215° Southwest 383 441 36,100 480 Climbing Aus ATC (RADAR)
06:40PM -29.0560 152.0250 215° Southwest 379 436 36,000 -180 Descending FlightAware
06:41PM -29.1125 151.9825 215° Southwest 381 438 36,000  Level Aus ATC (RADAR)
06:41PM -29.1140 151.9790 215° Southwest 383 441 36,000  Level FlightAware
06:42PM -29.1790 151.9280 214° Southwest 384 442 36,000  Level FlightAware
06:42PM -29.2225 151.8967 214° Southwest 384 442 36,000  Level Aus ATC (RADAR)
06:43PM -29.2400 151.8810 214° Southwest 384 442 36,000  Level FlightAware
06:43PM -29.2738 151.8566 214° Southwest 384 442 36,000  Level Aus ATC (RADAR)
06:43PM -29.2960 151.8370 214° Southwest 384 442 36,000  Level FlightAware
06:44PM -29.3468 151.7991 214° Southwest 383 441 36,000  Level Aus ATC (RADAR)
06:44PM -29.3640 151.7830 214° Southwest 384 442 36,000  Level FlightAware
06:44PM -29.4201 151.7411 214° Southwest 385 443 36,000  Level Aus ATC (RADAR)
06:45PM -29.4210 151.7380 214° Southwest 384 442 36,000  Level FlightAware
06:45PM -29.4890 151.6840 215° Southwest 383 441 36,000  Level FlightAware
06:46PM -29.5498 151.6367 215° Southwest 381 438 36,000  Level Aus ATC (RADAR)
06:46PM -29.5440 151.6380 215° Southwest 380 437 36,000  Level FlightAware
06:47PM -29.6070 151.5810 218° Southwest 380 437 36,000  Level FlightAware
06:47PM -29.6460 151.5482 218° Southwest 383 441 36,000  Level Aus ATC (RADAR)
06:47PM -29.6620 151.5310 218° Southwest 380 437 36,000  Level FlightAware
06:48PM -29.7083 151.4919 218° Southwest 383 441 36,000  Level Aus ATC (RADAR)
06:48PM -29.7190 151.4800 218° Southwest 381 438 36,000 60 Level FlightAware
06:49PM -29.7839 151.4223 218° Southwest 383 441 36,100  Climbing Aus ATC (RADAR)
06:49PM -29.7790 151.4250 218° Southwest 381 438 36,000 -180 Descending FlightAware
06:50PM -29.8360 151.3740 218° Southwest 382 440 36,000  Level FlightAware
06:50PM -29.8990 151.3160 219° Southwest 381 438 36,000 60 Level FlightAware
06:51PM -29.9292 151.2906 219° Southwest 382 440 36,100 180 Climbing Aus ATC (RADAR)
06:51PM -29.9499 151.2715 219° Southwest 383 441 36,100 -300 Level Aus ATC (RADAR)
06:51PM -29.9540 151.2660 219° Southwest 381 438 36,000  Descending FlightAware
06:51PM -29.9916 151.2339 219° Southwest 382 440 36,100  Climbing Aus ATC (RADAR)
06:52PM -30.0040 151.2200 219° Southwest 381 438 36,000  Descending FlightAware
06:52PM -30.0736 151.1557 219° Southwest 386 444 36,100  Climbing Aus ATC (RADAR)
06:52PM -30.0710 151.1600 219° Southwest 381 438 36,000 -180 Descending FlightAware
06:53PM -30.1280 151.1070 219° Southwest 382 440 36,000  Level FlightAware
06:54PM -30.1820 151.0580 218° Southwest 382 440 36,000 60 Level FlightAware
06:54PM -30.2190 151.0237 218° Southwest 383 441 36,100  Climbing Aus ATC (RADAR)
06:54PM -30.2300 151.0150 218° Southwest 382 440 36,000  Descending FlightAware
06:55PM -30.2813 150.9665 218° Southwest 382 440 36,100  Climbing Aus ATC (RADAR)
06:55PM -30.2770 150.9720 218° Southwest 382 440 36,000  Descending FlightAware
06:56PM -30.3573 150.8966 218° Southwest 383 441 36,100  Climbing Aus ATC (RADAR)
06:56PM -30.3360 150.9190 218° Southwest 382 440 36,000 -120 Descending FlightAware
06:57PM -30.3830 150.8760 218° Southwest 382 440 36,000  Level FlightAware
06:57PM -30.4310 150.8330 218° Southwest 382 440 36,000 60 Level FlightAware
06:58PM -30.5093 150.7575 218° Southwest 385 443 36,100  Climbing Aus ATC (RADAR)
06:58PM -30.4780 150.7900 218° Southwest 382 440 36,000  Descending FlightAware
06:58PM -30.5576 150.7129 218° Southwest 382 440 36,100  Climbing Aus ATC (RADAR)
06:59PM -30.5250 150.7470 218° Southwest 382 440 36,000  Descending FlightAware
06:59PM -30.6333 150.6418 218° Southwest 383 441 36,100 120 Climbing Aus ATC (RADAR)
06:59PM -30.6539 150.6227 219° Southwest 382 440 36,100 -300 Level Aus ATC (RADAR)
06:59PM -30.5850 150.6930 219° Southwest 382 440 36,000  Descending FlightAware
07:00PM -30.7016 150.5784 219° Southwest 379 436 36,100  Climbing Aus ATC (RADAR)
07:00PM -30.6320 150.6500 219° Southwest 382 440 36,000 -120 Descending FlightAware
07:01PM -30.6790 150.6070 218° Southwest 382 440 36,000  Level FlightAware
07:01PM -30.7270 150.5640 218° Southwest 382 440 36,000  Level FlightAware
07:02PM -30.7740 150.5210 218° Southwest 382 440 36,000 60 Level FlightAware
07:02PM -30.9104 150.3837 218° Southwest 371 427 36,100 120 Climbing Aus ATC (RADAR)
07:03PM -30.9307 150.3648 219° Southwest 372 428 36,100 -240 Level Aus ATC (RADAR)
07:03PM -30.8330 150.4670 219° Southwest 382 440 36,000  Descending FlightAware
07:03PM -30.9774 150.3213 219° Southwest 371 427 36,100 60 Climbing Aus ATC (RADAR)
07:04PM -31.0504 150.2527 219° Southwest 369 425 36,100 -120 Level Aus ATC (RADAR)
07:04PM -31.0390 150.2630 219° Southwest 362 417 36,000 -180 Descending FlightAware
07:05PM -31.1000 150.2050 219° Southwest 360 414 36,000  Level FlightAware
07:06PM -31.1530 150.1550 219° Southwest 360 414 36,000 60 Level FlightAware
07:06PM -31.1910 150.1202 219° Southwest 360 414 36,100  Climbing Aus ATC (RADAR)
07:06PM -31.2010 150.1100 219° Southwest 360 414 36,000  Descending FlightAware
07:07PM -31.2371 150.0767 219° Southwest 361 415 36,100  Climbing Aus ATC (RADAR)
07:07PM -31.2650 150.0490 219° Southwest 360 414 36,000  Descending FlightAware
07:08PM -31.3134 150.0043 219° Southwest 365 420 36,100  Climbing Aus ATC (RADAR)
07:08PM -31.3260 149.9920 219° Southwest 359 413 36,000 120 Descending FlightAware
07:08PM -31.3720 149.9486 219° Southwest 363 418 36,200 120 Climbing Aus ATC (RADAR)
07:08PM -31.3760 149.9440 219° Southwest 356 410 36,100 -240 Descending FlightAware
07:09PM -31.4290 149.8940 219° Southwest 358 412 36,000  Descending FlightAware
07:10PM -31.4688 149.8569 219° Southwest 358 412 36,100  Climbing Aus ATC (RADAR)
07:10PM -31.4870 149.8390 219° Southwest 356 410 36,000 -120 Descending FlightAware
07:11PM -31.5550 149.7740 219° Southwest 355 409 36,000 60 Level FlightAware
07:11PM -31.5985 149.7332 219° Southwest 350 403 36,100  Climbing Aus ATC (RADAR)
07:11PM -31.6090 149.7230 219° Southwest 354 407 36,000  Descending FlightAware
07:12PM -31.6431 149.6911 219° Southwest 348 400 36,100  Climbing Aus ATC (RADAR)
07:12PM -31.6680 149.6670 219° Southwest 355 409 36,000  Descending FlightAware
07:13PM -31.7190 149.6187 219° Southwest 348 400 36,100  Climbing Aus ATC (RADAR)
07:13PM -31.7190 149.6180 219° Southwest 354 407 36,000 -180 Descending FlightAware
07:14PM -31.7690 149.5700 219° Southwest 354 407 36,000 120 Level FlightAware
07:14PM -31.7803 149.5590 219° Southwest 356 410 36,100  Climbing Aus ATC (RADAR)
07:14PM -31.8260 149.5150 219° Southwest 353 406 36,000  Descending FlightAware
07:15PM -31.8517 149.4907 219° Southwest 347 399 36,100  Climbing Aus ATC (RADAR)
07:15PM -31.8780 149.4660 219° Southwest 353 406 36,000 -120 Descending FlightAware
07:16PM -31.9350 149.4110 219° Southwest 353 406 36,000 60 Level FlightAware
07:16PM -31.9719 149.3755 219° Southwest 347 399 36,100  Climbing Aus ATC (RADAR)
07:16PM -31.9860 149.3620 219° Southwest 353 406 36,000  Descending FlightAware
07:17PM -32.0163 149.3326 219° Southwest 350 403 36,100  Climbing Aus ATC (RADAR)
07:17PM -32.0420 149.3070 219° Southwest 353 406 36,000 -120 Descending FlightAware
07:18PM -32.0940 149.2570 219° Southwest 351 404 36,000 60 Level FlightAware
07:18PM -32.1294 149.2233 219° Southwest 348 400 36,100  Climbing Aus ATC (RADAR)
07:18PM -32.1450 149.2080 219° Southwest 343 395 36,000  Descending FlightAware
07:19PM -32.1729 149.1803 219° Southwest 346 398 36,100  Climbing Aus ATC (RADAR)
07:19PM -32.2000 149.1540 219° Southwest 342 394 36,000 -120 Descending FlightAware
07:20PM -32.2450 149.1110 219° Southwest 341 392 36,000 120 Level FlightAware
07:20PM -32.2537 149.1022 219° Southwest 343 395 36,100 300 Climbing Aus ATC (RADAR)
07:20PM -32.2722 149.0842 219° Southwest 342 394 36,100 -180 Level Aus ATC (RADAR)
07:21PM -32.3000 149.0570 219° Southwest 341 392 36,000 -120 Descending FlightAware
07:21PM -32.3550 149.0040 219° Southwest 340 391 36,000  Level FlightAware
07:22PM -32.4040 148.9550 220° Southwest 340 391 36,000  Level FlightAware
07:23PM -32.4600 148.9010 219° Southwest 339 390 36,000 60 Level FlightAware
07:23PM -32.4862 148.8757 219° Southwest 345 397 36,100  Climbing Aus ATC (RADAR)
07:23PM -32.5100 148.8520 219° Southwest 339 390 36,000  Descending FlightAware
07:24PM -32.5313 148.8316 219° Southwest 341 392 36,100 60 Climbing Aus ATC (RADAR)
07:24PM -32.5905 148.7730 220° Southwest 345 397 36,100 240 Level Aus ATC (RADAR)
07:25PM -32.6090 148.7550 220° Southwest 341 392 36,400 840 Climbing FlightAware
07:26PM -32.6776 148.6871 220° Southwest 352 405 37,100 720 Climbing Aus ATC (RADAR)
07:26PM -32.7177 148.6475 220° Southwest 351 404 37,400 420 Climbing Aus ATC (RADAR)
07:26PM -32.7170 148.6480 220° Southwest 358 412 37,400 480 Level FlightAware
07:27PM -32.7700 148.5960 220° Southwest 358 412 37,800 420 Climbing FlightAware
07:28PM -32.8280 148.5390 220° Southwest 358 412 38,000 120 Climbing FlightAware
07:28PM -32.8800 148.4880 219° Southwest 359 413 38,000 60 Level FlightAware
07:29PM -32.9078 148.4603 219° Southwest 359 413 38,100  Climbing Aus ATC (RADAR)
07:29PM -32.9300 148.4380 219° Southwest 360 414 38,000 -120 Descending FlightAware
07:30PM -32.9890 148.3790 220° Southwest 360 414 38,000 60 Level FlightAware
07:30PM -33.0380 148.3309 220° Southwest 358 412 38,100  Climbing Aus ATC (RADAR)
07:30PM -33.0370 148.3320 220° Southwest 361 415 38,000 -120 Descending FlightAware
07:31PM -33.0950 148.2730 220° Southwest 360 414 38,000  Level FlightAware
07:32PM -33.1500 148.2190 219° Southwest 354 407 38,000 60 Level FlightAware
07:32PM -33.2057 148.1679 219° Southwest 358 412 38,100  Climbing Aus ATC (RADAR)
07:32PM -33.2020 148.1710 219° Southwest 361 415 38,000 -180 Descending FlightAware
07:33PM -33.2620 148.1170 217° Southwest 353 406 38,000 60 Level FlightAware
07:34PM -33.3025 148.0797 217° Southwest 360 414 38,100  Climbing Aus ATC (RADAR)
07:34PM -33.3150 148.0680 217° Southwest 353 406 38,000  Descending FlightAware
07:34PM -33.3445 148.0410 217° Southwest 357 411 38,100  Climbing Aus ATC (RADAR)
07:35PM -33.3760 148.0110 217° Southwest 352 405 38,000  Descending FlightAware
07:35PM -33.4269 147.9642 217° Southwest 358 412 38,100  Climbing Aus ATC (RADAR)
07:35PM -33.4230 147.9680 217° Southwest 352 405 38,000  Descending FlightAware
07:36PM -33.4727 147.9220 217° Southwest 358 412 38,100  Climbing Aus ATC (RADAR)
07:36PM -33.4800 147.9150 217° Southwest 352 405 38,000 -120 Descending FlightAware
07:37PM -33.5390 147.8600 218° Southwest 351 404 38,000 60 Level FlightAware
07:37PM -33.5928 147.8099 218° Southwest 356 410 38,100  Climbing Aus ATC (RADAR)
07:37PM -33.5910 147.8120 218° Southwest 351 404 38,000 -180 Descending FlightAware
07:38PM -33.6450 147.7610 218° Southwest 351 404 38,000 60 Level FlightAware
07:39PM -33.6878 147.7214 218° Southwest 355 409 38,100 60 Climbing Aus ATC (RADAR)
07:39PM -33.7163 147.6949 218° Southwest 352 405 38,100 -120 Level Aus ATC (RADAR)
07:39PM -33.7500 147.6630 218° Southwest 349 402 38,000  Descending FlightAware
07:40PM -33.8241 147.5936 218° Southwest 355 409 38,100  Climbing Aus ATC (RADAR)
07:41PM -33.8420 147.5770 218° Southwest 350 403 38,000 -120 Descending FlightAware
07:41PM -33.8990 147.5230 218° Southwest 351 404 38,000 60 Level FlightAware
07:42PM -33.9412 147.4834 218° Southwest 358 412 38,100  Climbing Aus ATC (RADAR)
07:42PM -33.9520 147.4730 218° Southwest 352 405 38,000  Descending FlightAware
07:42PM -33.9828 147.4440 218° Southwest 356 410 38,100  Climbing Aus ATC (RADAR)
07:43PM -34.0240 147.4050 218° Southwest 351 404 38,000  Descending FlightAware
07:44PM -34.0841 147.3484 218° Southwest 356 410 38,100 60 Climbing Aus ATC (RADAR)
07:44PM -34.1035 147.3302 218° Southwest 355 409 38,100 -180 Level Aus ATC (RADAR)
07:44PM -34.1330 147.3010 218° Southwest 350 403 38,000 -120 Descending FlightAware
07:45PM -34.1870 147.2510 217° Southwest 350 403 38,000 60 Level FlightAware
07:46PM -34.2460 147.1948 217° Southwest 354 407 38,100  Climbing Aus ATC (RADAR)
07:46PM -34.2450 147.1950 217° Southwest 349 402 38,000  Descending FlightAware
07:46PM -34.2939 147.1494 217° Southwest 354 407 38,100  Climbing Aus ATC (RADAR)
07:46PM -34.2960 147.1460 217° Southwest 354 407 38,000  Descending FlightAware
07:47PM -34.3515 147.0943 217° Southwest 352 405 38,100  Climbing Aus ATC (RADAR)
07:47PM -34.3550 147.0900 217° Southwest 353 406 38,000  Descending FlightAware
07:48PM -34.3964 147.0513 217° Southwest 352 405 38,100  Climbing Aus ATC (RADAR)
07:48PM -34.4080 147.0390 217° Southwest 353 406 38,000 -120 Descending FlightAware
07:49PM -34.4650 146.9850 218° Southwest 353 406 38,000 60 Level FlightAware
07:49PM -34.4964 146.9557 218° Southwest 350 403 38,100  Climbing Aus ATC (RADAR)
07:49PM -34.5180 146.9340 218° Southwest 353 406 38,000 -120 Descending FlightAware
07:50PM -34.5680 146.8860 218° Southwest 353 406 38,000 60 Level FlightAware
07:50PM -34.6123 146.8456 218° Southwest 352 405 38,100  Climbing Aus ATC (RADAR)
07:51PM -34.6250 146.8310 218° Southwest 353 406 38,000  Descending FlightAware
07:51PM -34.6571 146.8024 218° Southwest 352 405 38,100  Climbing Aus ATC (RADAR)
07:51PM -34.6780 146.7800 218° Southwest 353 406 38,000  Descending FlightAware
07:52PM -34.7332 146.7284 218° Southwest 349 402 38,100  Climbing Aus ATC (RADAR)
07:52PM -34.7350 146.7250 218° Southwest 353 406 38,000  Descending FlightAware
07:53PM -34.7783 146.6855 218° Southwest 352 405 38,100  Climbing Aus ATC (RADAR)
07:53PM -34.7860 146.6750 218° Southwest 354 407 38,000 -120 Descending FlightAware
07:53PM -34.8380 146.6250 218° Southwest 355 409 38,000 60 Level FlightAware
07:54PM -34.8755 146.5897 218° Southwest 353 406 38,100  Climbing Aus ATC (RADAR)
07:54PM -34.8960 146.5690 218° Southwest 355 409 38,000  Descending FlightAware
07:55PM -34.9386 146.5304 218° Southwest 355 409 38,100  Climbing Aus ATC (RADAR)
07:55PM -34.9480 146.5190 218° Southwest 355 409 38,000  Descending FlightAware
07:56PM -35.0144 146.4548 218° Southwest 354 407 38,100 60 Climbing Aus ATC (RADAR)
07:56PM -35.0609 146.4116 217° Southwest 356 410 38,100 -120 Level Aus ATC (RADAR)
07:57PM -35.0710 146.3980 217° Southwest 356 410 38,000 -660 Descending FlightAware
07:57PM -35.1220 146.3480 219° Southwest 351 404 37,500 -840 Descending FlightAware
07:58PM -35.1573 146.3155 219° Southwest 349 402 37,200 -900 Descending Aus ATC (RADAR)
07:58PM -35.1730 146.2990 219° Southwest 350 403 36,900 -960 Descending FlightAware
07:58PM -35.2240 146.2496 219° Southwest 348 400 36,400 -960 Descending Aus ATC (RADAR)
07:59PM -35.2320 146.2410 219° Southwest 355 409 36,200 -1,140 Descending FlightAware
07:59PM -35.2649 146.2083 219° Southwest 357 411 35,800 -1,020 Descending Aus ATC (RADAR)
07:59PM -35.2846 146.1895 218° Southwest 359 413 35,600 -960 Descending Aus ATC (RADAR)
07:59PM -35.2820 146.1910 218° Southwest 357 411 35,500 -1,080 Descending FlightAware
08:00PM -35.3303 146.1448 218° Southwest 364 419 35,000 -960 Descending Aus ATC (RADAR)
08:00PM -35.3420 146.1330 218° Southwest 358 412 34,800 -1,020 Descending FlightAware
08:01PM -35.3950 146.0800 219° Southwest 360 414 34,100 -600 Descending FlightAware
08:01PM -35.4492 146.0288 219° Southwest 365 420 34,100 -180 Level Aus ATC (RADAR)
08:01PM -35.4470 146.0290 219° Southwest 361 415 34,000 -120 Descending FlightAware
08:02PM -35.5060 145.9700 219° Southwest 357 411 34,000  Level FlightAware
08:03PM -35.5590 145.9180 219° Southwest 355 409 34,000  Level FlightAware
08:04PM -35.6190 145.8580 219° Southwest 359 413 34,000 60 Level FlightAware
08:04PM -35.6504 145.8283 219° Southwest 358 412 34,100 120 Climbing Aus ATC (RADAR)
08:04PM -35.6699 145.8089 219° Southwest 359 413 34,100 -300 Level Aus ATC (RADAR)
08:04PM -35.6720 145.8050 219° Southwest 359 413 34,000  Descending FlightAware
08:05PM -35.7151 145.7641 219° Southwest 358 412 34,100  Climbing Aus ATC (RADAR)
08:05PM -35.7240 145.7540 219° Southwest 361 415 34,000 -120 Descending FlightAware
08:06PM -35.7820 145.6960 219° Southwest 362 417 34,000  Level FlightAware
08:06PM -35.8260 145.6520 219° Southwest 362 417 34,000  Level FlightAware
08:07PM -35.8960 145.5810 219° Southwest 361 415 34,000 60 Level FlightAware
08:08PM -35.9610 145.5173 219° Southwest 359 413 34,100  Climbing Aus ATC (RADAR)
08:09PM -36.0580 145.4190 219° Southwest 361 415 34,100  Level Aus ATC (RADAR)
08:09PM -36.0776 145.3992 219° Southwest 363 418 34,100  Level Aus ATC (RADAR)
08:10PM -36.1230 145.3539 219° Southwest 362 417 34,100  Level Aus ATC (RADAR)
08:11PM -36.2072 145.2679 219° Southwest 363 418 34,100 -120 Level Aus ATC (RADAR)
08:12PM -36.2527 145.2218 219° Southwest 363 418 34,000 -1,440 Descending Aus ATC (RADAR)
08:13PM -36.3237 145.1491 219° Southwest 363 418 32,000 -2,220 Descending Aus ATC (RADAR)
08:13PM -36.3685 145.1028 220° Southwest 362 417 30,700 -2,280 Descending Aus ATC (RADAR)
08:14PM -36.4449 145.0281 218° Southwest 353 406 28,500 -2,280 Descending Aus ATC (RADAR)
08:15PM -36.5047 144.9637 221° Southwest 371 427 26,800 -2,280 Descending Aus ATC (RADAR)
08:16PM -36.5858 144.8806 219° Southwest 383 441 24,500 -2,280 Descending Aus ATC (RADAR)
08:16PM -36.6336 144.8314 220° Southwest 385 443 23,200 -2,100 Descending Aus ATC (RADAR)
08:17PM -36.7060 144.7571 219° Southwest 368 423 21,400 -2,340 Descending Aus ATC (RADAR)
08:18PM -36.7519 144.7092 220° Southwest 371 427 19,700 -2,280 Descending Aus ATC (RADAR)
08:19PM -36.8584 144.6605 200° South 369 425 17,500 -2,040 Descending Aus ATC (RADAR)
08:20PM -36.8997 144.6726 167° South 364 419 16,500 -2,100 Descending Aus ATC (RADAR)
08:21PM -36.9980 144.6943 170° South 354 407 14,600 -2,040 Descending Aus ATC (RADAR)
08:21PM -37.0615 144.7085 170° South 345 397 13,200 -1,980 Descending Aus ATC (RADAR)
08:23PM -37.2010 144.7394 170° South 330 380 10,400 -1,440 Descending Aus ATC (RADAR)
08:24PM -37.2838 144.7568 171° South 293 337 9,600 -1,080 Descending Aus ATC (RADAR)
08:25PM -37.3965 144.7614 178° South 288 331 7,900 -1,140 Descending Aus ATC (RADAR)
08:25PM -37.4161 144.7590 186° South 286 329 7,700 -960 Descending Aus ATC (RADAR)
08:26PM -37.4623 144.7546 184° South 286 329 7,100 -840 Descending Aus ATC (RADAR)
08:27PM -37.5487 144.7460 185° South 287 330 6,300 -660 Descending Aus ATC (RADAR)
08:28PM -37.5946 144.7417 184° South 284 327 6,000 -540 Descending Aus ATC (RADAR)
08:28PM -37.6532 144.7355 185° South 279 321 5,600 -1,200 Descending Aus ATC (RADAR)
08:29PM -37.6976 144.7313 184° South 274 315 4,400 -1,500 Descending Aus ATC (RADAR)
08:30PM -37.7557 144.7491 166° South 216 249 3,300 -1,020 Descending Aus ATC (RADAR)
08:30PM -37.7578 144.7648 100° East 188 216 3,200 -780 Descending Aus ATC (RADAR)
08:30PM -37.7590 144.7770 100° East 173 199 2,900 -1,080 Descending FlightAware
08:31PM -37.7612 144.7991 100° East 166 191 2,600 -720 Descending Aus ATC (RADAR)
08:32PM -37.7610 144.8370 100° East 125 144 2,100 -720 Descending FlightAware
08:32PM -37.7570 144.8430 50° Northeast 118 136 1,900 -720 Descending FlightAware
08:32PM -37.7510 144.8480 33° Northeast 110 127 1,800 -600 Descending FlightAware
08:33PM -37.7270 144.8490 North 118 136 1,300 -720 Descending FlightAware
08:33PM -37.7110 144.8460 352° North 115 132 1,000 -720 Descending FlightAware
08:34PM -37.7020 144.8440 350° North 113 130 800 -840 Descending FlightAware
08:34PM -37.6895 144.8419 350° North 117 135 500 -1,080 Descending Aus ATC (RADAR)